createdAt,value
2023-03-16T00:01:09.986Z,98.91
2023-03-16T00:03:38.410Z,100.00
2023-03-16T00:06:07.368Z,100.00
2023-03-16T00:08:36.936Z,100.00
2023-03-16T00:11:08.613Z,100.00
2023-03-16T00:13:36.940Z,100.00
2023-03-16T00:16:05.630Z,100.00
2023-03-16T00:18:38.998Z,100.00
2023-03-16T00:21:07.964Z,100.00
2023-03-16T00:23:37.699Z,100.00
2023-03-16T00:26:08.997Z,100.00
2023-03-16T00:28:37.712Z,100.00
2023-03-16T00:31:07.118Z,100.00
2023-03-16T00:33:36.015Z,100.00
2023-03-16T00:36:09.449Z,100.00
2023-03-16T00:38:39.330Z,100.00
2023-03-16T00:41:09.700Z,100.00
2023-03-16T00:43:41.843Z,100.00
2023-03-16T00:46:11.623Z,100.00
2023-03-16T00:48:42.679Z,100.00
2023-03-16T00:51:14.938Z,100.00
2023-03-16T00:53:44.851Z,100.00
2023-03-16T00:56:15.358Z,100.00
2023-03-16T00:58:44.260Z,100.00
2023-03-16T01:01:14.981Z,100.00
2023-03-16T01:03:44.614Z,100.00
2023-03-16T01:06:15.288Z,100.00
2023-03-16T01:08:43.758Z,100.00
2023-03-16T01:11:16.652Z,100.00
2023-03-16T01:13:47.184Z,100.00
2023-03-16T01:16:16.057Z,100.00
2023-03-16T01:18:44.399Z,100.00
2023-03-16T01:21:14.880Z,100.00
2023-03-16T01:23:44.334Z,100.00
2023-03-16T01:26:17.802Z,100.00
2023-03-16T01:28:48.351Z,100.00
2023-03-16T01:31:17.162Z,100.00
2023-03-16T01:33:45.894Z,100.00
2023-03-16T01:36:20.111Z,100.00
2023-03-16T01:38:55.530Z,100.00
2023-03-16T01:41:28.267Z,100.00
2023-03-16T01:43:58.648Z,100.00
2023-03-16T01:46:29.589Z,100.00
2023-03-16T01:49:06.981Z,100.00
2023-03-16T01:51:40.110Z,100.00
2023-03-16T01:54:14.855Z,100.00
2023-03-16T01:56:47.107Z,100.00
2023-03-16T01:59:17.685Z,100.00
2023-03-16T02:01:48.772Z,100.00
2023-03-16T02:04:39.995Z,100.00
2023-03-16T02:07:10.195Z,100.00
2023-03-16T02:09:42.858Z,100.00
2023-03-16T02:12:18.573Z,100.00
2023-03-16T02:14:52.785Z,100.00
2023-03-16T02:17:23.849Z,100.00
2023-03-16T02:20:01.187Z,100.00
2023-03-16T02:22:30.289Z,100.00
2023-03-16T02:24:58.694Z,100.00
2023-03-16T02:27:36.410Z,100.00
2023-03-16T02:30:09.729Z,100.00
2023-03-16T02:32:45.888Z,100.00
2023-03-16T02:35:14.467Z,100.00
2023-03-16T02:37:43.686Z,100.00
2023-03-16T02:40:22.388Z,100.00
2023-03-16T02:42:56.818Z,100.00
2023-03-16T02:45:29.186Z,100.00
2023-03-16T02:47:58.002Z,100.00
2023-03-16T02:50:26.450Z,100.00
2023-03-16T02:52:54.907Z,100.00
2023-03-16T02:55:23.476Z,100.00
2023-03-16T02:57:52.379Z,100.00
2023-03-16T03:00:22.642Z,100.00
2023-03-16T03:02:54.182Z,100.00
2023-03-16T03:05:22.520Z,100.00
2023-03-16T03:07:51.391Z,100.00
2023-03-16T03:10:20.095Z,100.00
2023-03-16T03:12:49.832Z,100.00
2023-03-16T03:15:19.123Z,100.00
2023-03-16T03:18:04.155Z,100.00
2023-03-16T03:20:33.293Z,100.00
2023-03-16T03:23:03.185Z,100.00
2023-03-16T03:25:34.972Z,100.00
2023-03-16T03:28:06.047Z,100.00
2023-03-16T03:30:34.461Z,100.00
2023-03-16T03:33:04.456Z,100.00
2023-03-16T03:35:33.024Z,100.00
2023-03-16T03:38:01.787Z,100.00
2023-03-16T03:40:30.546Z,100.00
2023-03-16T03:43:02.842Z,100.00
2023-03-16T03:45:32.836Z,100.00
2023-03-16T03:48:01.214Z,100.00
2023-03-16T03:50:30.949Z,100.00
2023-03-16T03:53:19.848Z,100.00
2023-03-16T03:56:11.102Z,100.00
2023-03-16T03:58:41.091Z,100.00
2023-03-16T04:01:10.324Z,100.00
2023-03-16T04:03:38.789Z,100.00
2023-03-16T04:06:10.247Z,100.00
2023-03-16T04:08:38.605Z,100.00
2023-03-16T04:11:11.992Z,100.00
2023-03-16T04:13:41.652Z,100.00
2023-03-16T04:16:10.783Z,100.00
2023-03-16T04:18:45.498Z,100.00
2023-03-16T04:21:17.193Z,100.00
2023-03-16T04:23:48.294Z,100.00
2023-03-16T04:26:17.998Z,100.00
2023-03-16T04:28:49.022Z,100.00
2023-03-16T04:31:20.372Z,100.00
2023-03-16T04:33:49.559Z,100.00
2023-03-16T04:36:19.660Z,100.00
2023-03-16T04:38:47.965Z,100.00
2023-03-16T04:41:18.259Z,100.00
2023-03-16T04:43:55.440Z,100.00
2023-03-16T04:46:26.906Z,100.00
2023-03-16T04:48:59.277Z,100.00
2023-03-16T04:51:31.610Z,100.00
2023-03-16T04:54:11.512Z,100.00
2023-03-16T04:56:42.791Z,100.00
2023-03-16T05:00:14.044Z,100.00
2023-03-16T05:02:48.861Z,100.00
2023-03-16T05:05:17.923Z,100.00
2023-03-16T05:07:47.829Z,100.00
2023-03-16T05:10:18.919Z,100.00
2023-03-16T05:12:48.316Z,100.00
2023-03-16T05:15:17.050Z,100.00
2023-03-16T05:17:49.345Z,100.00
2023-03-16T05:20:18.237Z,100.00
2023-03-16T05:22:53.571Z,100.00
2023-03-16T05:25:29.396Z,100.00
2023-03-16T05:28:00.449Z,100.00
2023-03-16T05:30:54.993Z,100.00
2023-03-16T05:33:28.032Z,100.00
2023-03-16T05:36:03.866Z,100.00
2023-03-16T05:38:36.846Z,100.00
2023-03-16T05:41:09.593Z,100.00
2023-03-16T05:43:58.820Z,100.00
2023-03-16T05:46:33.568Z,100.00
2023-03-16T05:49:04.995Z,100.00
2023-03-16T05:51:33.469Z,100.00
2023-03-16T05:54:05.359Z,100.00
2023-03-16T06:00:46.849Z,100.00
2023-03-16T06:04:27.301Z,100.00
2023-03-16T06:07:07.108Z,100.00
2023-03-16T06:10:05.256Z,100.00
2023-03-16T06:19:42.211Z,100.00
2023-03-16T06:22:11.316Z,100.00
2023-03-16T06:24:41.484Z,100.00
2023-03-16T06:27:11.761Z,100.00
2023-03-16T06:29:55.360Z,100.00
2023-03-16T06:32:23.882Z,100.00
2023-03-16T06:34:52.706Z,100.00
2023-03-16T06:37:21.880Z,100.00
2023-03-16T06:39:51.120Z,100.00
2023-03-16T06:42:20.988Z,100.00
2023-03-16T06:44:49.390Z,100.00
2023-03-16T06:47:19.762Z,100.00
2023-03-16T06:49:48.211Z,100.00
2023-03-16T06:52:21.290Z,100.00
2023-03-16T06:54:49.850Z,100.00
2023-03-16T06:57:21.415Z,100.00
2023-03-16T06:59:52.346Z,100.00
2023-03-16T07:02:23.620Z,100.00
2023-03-16T07:04:52.626Z,100.00
2023-03-16T07:07:21.999Z,100.00
2023-03-16T07:09:50.345Z,100.00
2023-03-16T07:12:20.121Z,100.00
2023-03-16T07:14:51.800Z,100.00
2023-03-16T07:17:23.811Z,100.00
2023-03-16T07:19:52.738Z,100.00
2023-03-16T07:22:22.139Z,100.00
2023-03-16T07:24:56.169Z,100.00
2023-03-16T07:27:27.553Z,100.00
2023-03-16T07:29:56.406Z,100.00
2023-03-16T07:32:24.929Z,96.05
2023-03-16T07:34:53.759Z,92.13
2023-03-16T07:37:25.865Z,91.64
2023-03-16T07:39:58.878Z,90.56
2023-03-16T07:42:29.600Z,88.27
2023-03-16T07:45:05.539Z,85.35
2023-03-16T07:47:34.780Z,84.30
2023-03-16T07:50:13.467Z,85.82
2023-03-16T07:57:21.744Z,83.41
2023-03-16T07:59:53.352Z,85.87
2023-03-16T08:02:22.806Z,84.26
2023-03-16T08:04:51.794Z,79.81
2023-03-16T08:07:20.509Z,78.44
2023-03-16T08:10:12.525Z,79.38
2023-03-16T08:12:46.666Z,79.36
2023-03-16T08:15:16.742Z,78.91
2023-03-16T08:17:45.912Z,77.27
2023-03-16T08:20:20.208Z,76.37
2023-03-16T08:22:49.763Z,75.75
2023-03-16T08:25:21.884Z,73.70
2023-03-16T08:28:06.351Z,71.22
2023-03-16T08:30:36.420Z,70.70
2023-03-16T08:33:22.579Z,68.05
2023-03-16T08:35:52.402Z,66.52
2023-03-16T08:38:23.062Z,65.22
2023-03-16T08:40:53.186Z,63.24
2023-03-16T08:43:24.071Z,61.19
2023-03-16T08:45:56.044Z,59.81
2023-03-16T08:48:28.874Z,60.26
2023-03-16T08:50:57.297Z,57.62
2023-03-16T08:53:25.566Z,54.44
2023-03-16T08:55:53.854Z,53.78
2023-03-16T08:58:22.574Z,54.57
2023-03-16T09:00:50.891Z,54.26
2023-03-16T09:03:21.650Z,51.71
2023-03-16T09:05:49.920Z,52.52
2023-03-16T09:08:18.571Z,52.86
2023-03-16T09:10:47.097Z,51.79
2023-03-16T09:13:16.407Z,51.12
2023-03-16T09:15:44.731Z,51.08
2023-03-16T09:18:13.772Z,50.13
2023-03-16T09:20:43.911Z,46.11
2023-03-16T09:23:14.124Z,45.25
2023-03-16T09:25:42.672Z,44.43
2023-03-16T09:28:11.404Z,43.90
2023-03-16T09:30:39.717Z,43.11
2023-03-16T09:33:08.225Z,41.73
2023-03-16T09:35:37.195Z,41.21
2023-03-16T09:38:07.352Z,39.31
2023-03-16T09:40:36.485Z,39.88
2023-03-16T09:43:24.443Z,40.14
2023-03-16T09:45:59.953Z,39.43
2023-03-16T09:48:34.003Z,38.97
2023-03-16T09:51:03.683Z,36.90
2023-03-16T09:53:35.680Z,36.23
2023-03-16T09:56:06.265Z,35.95
2023-03-16T09:58:34.701Z,36.68
2023-03-16T10:01:10.879Z,36.82
2023-03-16T10:04:00.813Z,36.68
2023-03-16T10:06:29.596Z,33.87
2023-03-16T10:09:05.828Z,34.11
2023-03-16T10:11:37.286Z,34.03
2023-03-16T10:14:17.679Z,34.81
2023-03-16T10:16:50.623Z,35.10
2023-03-16T10:19:21.665Z,35.86
2023-03-16T10:21:50.566Z,34.35
2023-03-16T10:24:29.917Z,32.89
2023-03-16T10:27:00.672Z,34.25
2023-03-16T10:29:32.582Z,34.79
2023-03-16T10:32:03.459Z,32.02
2023-03-16T10:34:32.434Z,30.40
2023-03-16T10:37:03.079Z,29.80
2023-03-16T10:39:43.072Z,29.48
2023-03-16T10:42:17.969Z,30.41
2023-03-16T10:44:46.733Z,30.18
2023-03-16T10:47:20.115Z,29.96
2023-03-16T10:49:51.398Z,29.50
2023-03-16T10:52:22.323Z,30.24
2023-03-16T10:54:54.565Z,31.03
2023-03-16T10:57:26.633Z,31.79
2023-03-16T10:59:56.885Z,31.97
2023-03-16T11:02:31.982Z,32.27
2023-03-16T11:05:01.037Z,31.38
2023-03-16T11:07:29.474Z,31.33
2023-03-16T11:09:59.821Z,30.92
2023-03-16T11:12:30.828Z,30.01
2023-03-16T11:15:07.501Z,30.04
2023-03-16T11:17:41.578Z,29.48
2023-03-16T11:20:17.746Z,30.66
2023-03-16T11:22:47.303Z,28.95
2023-03-16T11:25:21.752Z,29.03
2023-03-16T11:27:54.251Z,28.69
2023-03-16T11:30:29.088Z,29.69
2023-03-16T11:33:00.411Z,29.84
2023-03-16T11:35:34.840Z,29.11
2023-03-16T11:38:14.381Z,29.38
2023-03-16T11:40:54.060Z,29.36
2023-03-16T11:43:54.160Z,27.86
2023-03-16T11:46:25.478Z,28.18
2023-03-16T11:49:02.263Z,28.47
2023-03-16T11:51:37.893Z,29.65
2023-03-16T11:54:18.647Z,29.52
2023-03-16T11:56:51.737Z,28.95
2023-03-16T11:59:46.277Z,27.87
2023-03-16T12:02:43.855Z,28.00
2023-03-16T12:05:43.869Z,27.48
2023-03-16T12:08:30.705Z,26.15
2023-03-16T12:11:02.670Z,25.39
2023-03-16T12:13:40.188Z,25.37
2023-03-16T12:16:12.933Z,25.95
2023-03-16T12:18:44.838Z,26.79
2023-03-16T12:21:16.002Z,26.11
2023-03-16T12:23:58.666Z,25.23
2023-03-16T12:26:30.351Z,24.63
2023-03-16T12:29:01.349Z,25.58
2023-03-16T12:31:37.766Z,25.24
2023-03-16T12:34:11.133Z,24.87
2023-03-16T12:36:58.338Z,24.68
2023-03-16T12:39:37.496Z,24.62
2023-03-16T12:42:16.772Z,24.64
2023-03-16T12:44:49.322Z,24.67
2023-03-16T12:47:24.186Z,23.97
2023-03-16T12:49:53.114Z,24.36
2023-03-16T12:52:21.673Z,24.25
2023-03-16T12:54:54.261Z,24.04
2023-03-16T12:57:27.130Z,22.93
2023-03-16T13:00:00.611Z,22.66
2023-03-16T13:02:32.040Z,22.40
2023-03-16T13:05:02.964Z,22.57
2023-03-16T13:07:32.690Z,23.61
2023-03-16T13:10:08.348Z,23.81
2023-03-16T13:12:38.472Z,23.59
2023-03-16T13:15:29.977Z,23.10
2023-03-16T13:18:08.204Z,23.52
2023-03-16T13:20:50.954Z,23.79
2023-03-16T13:23:24.861Z,23.51
2023-03-16T13:26:06.863Z,22.44
2023-03-16T13:28:38.860Z,23.16
2023-03-16T13:31:21.749Z,23.74
2023-03-16T13:33:51.698Z,23.02
2023-03-16T13:36:20.886Z,23.07
2023-03-16T13:38:57.749Z,23.22
2023-03-16T13:41:26.124Z,24.07
2023-03-16T13:43:54.354Z,23.36
2023-03-16T13:46:30.179Z,22.79
2023-03-16T13:49:02.347Z,22.03
2023-03-16T13:51:32.103Z,22.49
2023-03-16T13:54:00.605Z,21.78
2023-03-16T13:56:31.857Z,22.41
2023-03-16T13:59:01.142Z,22.26
2023-03-16T14:01:32.894Z,22.03
2023-03-16T14:04:08.620Z,21.71
2023-03-16T14:06:38.175Z,21.79
2023-03-16T14:09:09.381Z,22.25
2023-03-16T14:11:37.771Z,22.37
2023-03-16T14:14:16.045Z,22.54
2023-03-16T14:16:45.870Z,21.80
2023-03-16T14:19:19.731Z,21.72
2023-03-16T14:21:48.356Z,21.91
2023-03-16T14:24:26.416Z,22.01
2023-03-16T14:26:55.018Z,21.66
2023-03-16T14:29:27.673Z,21.97
2023-03-16T14:31:57.908Z,22.22
2023-03-16T14:34:30.796Z,22.04
2023-03-16T14:37:19.363Z,21.81
2023-03-16T14:39:48.005Z,21.88
2023-03-16T14:42:21.540Z,22.11
2023-03-16T14:44:52.691Z,21.77
2023-03-16T14:47:25.809Z,22.54
2023-03-16T14:49:54.239Z,22.26
2023-03-16T14:52:27.340Z,21.71
2023-03-16T14:54:55.876Z,22.19
2023-03-16T14:57:24.596Z,23.49
2023-03-16T14:59:52.910Z,24.46
2023-03-16T15:02:25.459Z,23.86
2023-03-16T15:04:54.893Z,24.09
2023-03-16T15:07:26.669Z,24.16
2023-03-16T15:09:56.160Z,23.85
2023-03-16T15:12:26.354Z,23.33
2023-03-16T15:15:12.485Z,23.34
2023-03-16T15:17:42.520Z,23.77
2023-03-16T15:20:13.249Z,23.65
2023-03-16T15:23:06.205Z,23.59
2023-03-16T15:25:37.891Z,24.22
2023-03-16T15:28:13.704Z,24.88
2023-03-16T15:30:43.385Z,24.89
2023-03-16T15:33:14.154Z,24.56
2023-03-16T15:35:44.606Z,24.75
2023-03-16T15:38:19.466Z,24.64
2023-03-16T15:40:54.130Z,24.68
2023-03-16T15:43:25.164Z,24.81
2023-03-16T15:45:54.298Z,25.40
2023-03-16T15:48:28.400Z,24.96
2023-03-16T15:50:58.915Z,25.45
2023-03-16T15:53:32.244Z,25.48
2023-03-16T15:56:04.368Z,25.75
2023-03-16T15:58:35.350Z,25.80
2023-03-16T16:01:05.775Z,26.72
2023-03-16T16:03:38.190Z,26.17
2023-03-16T16:06:17.860Z,26.40
2023-03-16T16:08:48.204Z,25.99
2023-03-16T16:11:25.145Z,25.57
2023-03-16T16:13:58.253Z,25.90
2023-03-16T16:16:29.471Z,25.79
2023-03-16T16:19:03.523Z,26.64
2023-03-16T16:21:35.333Z,26.08
2023-03-16T16:24:04.627Z,26.89
2023-03-16T16:29:27.922Z,26.60
2023-03-16T16:31:56.478Z,27.33
2023-03-16T16:34:29.187Z,27.88
2023-03-16T16:37:00.798Z,28.64
2023-03-16T16:39:32.956Z,29.44
2023-03-16T16:42:01.958Z,29.72
2023-03-16T16:44:36.910Z,29.54
2023-03-16T16:47:21.287Z,29.46
2023-03-16T16:49:53.554Z,29.75
2023-03-16T16:52:22.806Z,30.42
2023-03-16T16:54:51.990Z,31.15
2023-03-16T16:57:21.598Z,31.39
2023-03-16T16:59:51.495Z,31.91
2023-03-16T17:02:25.527Z,32.01
2023-03-16T17:04:57.016Z,32.65
2023-03-16T17:07:25.955Z,32.36
2023-03-16T17:10:01.477Z,32.46
2023-03-16T17:12:29.802Z,32.80
2023-03-16T17:14:59.059Z,33.26
2023-03-16T17:17:27.617Z,33.73
2023-03-16T17:20:06.598Z,34.33
2023-03-16T17:22:36.731Z,34.06
2023-03-16T17:25:15.200Z,34.41
2023-03-16T17:27:49.015Z,34.57
2023-03-16T17:30:23.946Z,34.80
2023-03-16T17:32:55.295Z,34.95
2023-03-16T17:35:28.277Z,35.16
2023-03-16T17:38:01.096Z,35.63
2023-03-16T17:40:32.549Z,35.78
2023-03-16T17:43:03.226Z,35.93
2023-03-16T17:45:33.165Z,36.32
2023-03-16T17:48:03.046Z,36.64
2023-03-16T17:50:35.622Z,36.88
2023-03-16T17:53:05.715Z,37.13
2023-03-16T17:55:39.335Z,37.42
2023-03-16T17:58:25.087Z,37.77
2023-03-16T18:00:57.143Z,38.00
2023-03-16T18:03:31.018Z,37.99
2023-03-16T18:06:06.208Z,38.63
2023-03-16T18:08:37.170Z,39.19
2023-03-16T18:11:15.264Z,39.27
2023-03-16T18:13:45.545Z,39.89
2023-03-16T18:16:20.442Z,39.71
2023-03-16T18:18:53.594Z,39.89
2023-03-16T18:21:26.307Z,40.17
2023-03-16T18:23:57.887Z,40.48
2023-03-16T18:26:29.704Z,40.43
2023-03-16T18:29:01.287Z,40.66
2023-03-16T18:31:31.149Z,40.98
2023-03-16T18:34:04.161Z,41.17
2023-03-16T18:36:41.720Z,41.22
2023-03-16T18:39:20.145Z,41.21
2023-03-16T18:41:51.317Z,41.74
2023-03-16T18:44:23.558Z,41.89
2023-03-16T18:46:57.462Z,42.87
2023-03-16T18:49:34.595Z,42.99
2023-03-16T18:52:14.257Z,43.59
2023-03-16T18:54:46.794Z,43.92
2023-03-16T18:57:19.932Z,45.12
2023-03-16T18:59:51.945Z,45.17
2023-03-16T19:02:30.710Z,46.25
2023-03-16T19:05:05.191Z,46.51
2023-03-16T19:07:40.423Z,47.03
2023-03-16T19:10:24.071Z,47.51
2023-03-16T19:12:55.601Z,48.34
2023-03-16T19:15:32.385Z,46.68
2023-03-16T19:18:03.494Z,47.01
2023-03-16T19:20:40.227Z,46.60
2023-03-16T19:23:22.107Z,46.84
2023-03-16T19:25:55.430Z,47.42
2023-03-16T19:28:30.207Z,47.87
2023-03-16T19:31:02.656Z,48.29
2023-03-16T19:33:34.378Z,48.79
2023-03-16T19:36:05.990Z,48.60
2023-03-16T19:38:42.141Z,49.36
2023-03-16T19:41:23.813Z,48.59
2023-03-16T19:44:00.346Z,48.68
2023-03-16T19:46:32.316Z,49.98
2023-03-16T19:49:04.486Z,50.13
2023-03-16T19:51:34.425Z,50.31
2023-03-16T19:54:24.036Z,50.94
2023-03-16T19:56:57.474Z,52.08
2023-03-16T19:59:31.482Z,53.30
2023-03-16T20:02:03.334Z,53.98
2023-03-16T20:04:35.733Z,54.94
2023-03-16T20:07:14.666Z,54.35
2023-03-16T20:09:53.377Z,54.27
2023-03-16T20:12:28.018Z,54.66
2023-03-16T20:15:00.222Z,54.94
2023-03-16T20:17:34.660Z,56.08
2023-03-16T20:20:06.581Z,56.70
2023-03-16T20:22:44.345Z,57.06
2023-03-16T20:25:18.511Z,57.18
2023-03-16T20:27:52.547Z,57.17
2023-03-16T20:30:27.735Z,57.97
2023-03-16T20:33:00.451Z,56.38
2023-03-16T20:35:34.109Z,56.53
2023-03-16T20:38:06.644Z,57.91
2023-03-16T20:40:42.573Z,59.19
2023-03-16T20:43:26.501Z,59.34
2023-03-16T20:46:03.690Z,59.41
2023-03-16T20:48:34.341Z,60.08
2023-03-16T20:51:09.908Z,60.21
2023-03-16T20:53:42.293Z,60.40
2023-03-16T20:56:18.661Z,61.04
2023-03-16T20:58:50.162Z,61.91
2023-03-16T21:01:29.982Z,62.63
2023-03-16T21:04:00.641Z,62.72
2023-03-16T21:06:32.465Z,62.31
2023-03-16T21:09:03.771Z,61.72
2023-03-16T21:11:41.776Z,61.84
2023-03-16T21:14:23.511Z,61.70
2023-03-16T21:16:53.361Z,61.94
2023-03-16T21:19:24.553Z,62.31
2023-03-16T21:21:54.504Z,62.19
2023-03-16T21:24:23.454Z,63.08
2023-03-16T21:26:54.715Z,62.30
2023-03-16T21:29:24.315Z,62.93
2023-03-16T21:31:58.588Z,62.86
2023-03-16T21:34:36.144Z,63.45
2023-03-16T21:37:15.284Z,63.56
2023-03-16T21:39:45.729Z,64.13
2023-03-16T21:43:01.072Z,64.57
2023-03-16T21:45:44.529Z,68.14
2023-03-16T21:48:24.169Z,69.26
2023-03-16T21:51:02.245Z,70.12
2023-03-16T21:53:33.877Z,72.18
2023-03-16T21:56:02.187Z,72.87
2023-03-16T21:58:30.596Z,75.34
2023-03-16T22:01:11.944Z,75.42
2023-03-16T22:03:51.585Z,77.38
2023-03-16T22:06:21.915Z,78.12
2023-03-16T22:08:51.931Z,79.21
2023-03-16T22:11:25.267Z,78.32
2023-03-16T22:14:12.627Z,76.57
2023-03-16T22:16:42.666Z,74.95
2023-03-16T22:19:23.277Z,76.90
2023-03-16T22:21:53.918Z,76.06
2023-03-16T22:24:33.247Z,76.85
2023-03-16T22:27:30.970Z,80.92
2023-03-16T22:30:11.988Z,80.84
2023-03-16T22:32:48.483Z,82.19
2023-03-16T22:35:28.575Z,85.26
2023-03-16T22:38:10.106Z,85.27
2023-03-16T22:40:43.173Z,87.59
2023-03-16T22:43:36.266Z,89.70
2023-03-16T22:46:08.458Z,89.49
2023-03-16T22:48:41.456Z,89.97
2023-03-16T22:51:30.847Z,87.70
2023-03-16T22:57:23.813Z,86.06
2023-03-16T22:59:56.123Z,82.53
2023-03-16T23:02:32.348Z,84.48
2023-03-16T23:05:02.109Z,85.73
2023-03-16T23:07:41.625Z,84.72
2023-03-16T23:10:23.628Z,84.45
2023-03-16T23:12:57.466Z,86.12
2023-03-16T23:15:35.777Z,88.46
2023-03-16T23:18:19.096Z,91.98
2023-03-16T23:20:54.806Z,91.81
2023-03-16T23:23:27.844Z,90.74
2023-03-16T23:25:58.356Z,92.63
2023-03-16T23:28:29.221Z,92.54
2023-03-16T23:30:57.515Z,94.43
2023-03-16T23:33:27.165Z,95.47
2023-03-16T23:35:57.208Z,95.50
2023-03-16T23:38:26.150Z,94.89
2023-03-16T23:40:54.656Z,97.30
2023-03-16T23:43:23.028Z,99.82
2023-03-16T23:45:51.321Z,96.35
2023-03-16T23:48:21.878Z,94.28
2023-03-16T23:50:52.362Z,95.17
2023-03-16T23:53:22.815Z,98.58
2023-03-16T23:55:51.593Z,100.00
2023-03-16T23:58:20.218Z,100.00
